createdAt,value
2018-08-22T00:02:42.187Z,16.00
2018-08-22T00:05:45.825Z,15.90
2018-08-22T00:08:49.471Z,16.00
2018-08-22T00:11:53.066Z,15.90
2018-08-22T00:14:56.671Z,15.90
2018-08-22T00:18:00.294Z,15.80
2018-08-22T00:21:04.078Z,15.80
2018-08-22T00:24:07.686Z,15.80
2018-08-22T00:27:11.329Z,15.80
2018-08-22T00:30:14.937Z,15.80
2018-08-22T00:33:18.625Z,15.70
2018-08-22T00:36:22.599Z,15.70
2018-08-22T00:39:26.194Z,15.60
2018-08-22T00:42:29.800Z,15.60
2018-08-22T00:45:33.434Z,15.60
2018-08-22T00:48:37.042Z,15.50
2018-08-22T00:51:40.670Z,15.50
2018-08-22T00:54:44.265Z,15.40
2018-08-22T00:57:47.943Z,15.40
2018-08-22T01:00:51.615Z,15.30
2018-08-22T01:03:55.261Z,15.30
2018-08-22T01:06:58.871Z,15.30
2018-08-22T01:10:02.550Z,15.30
2018-08-22T01:13:06.452Z,15.20
2018-08-22T01:16:10.065Z,15.20
2018-08-22T01:19:13.762Z,15.20
2018-08-22T01:22:17.394Z,15.10
2018-08-22T01:25:21.013Z,15.10
2018-08-22T01:28:24.633Z,15.00
2018-08-22T01:31:28.232Z,15.00
2018-08-22T01:34:32.051Z,14.90
2018-08-22T01:37:35.633Z,14.90
2018-08-22T01:40:39.294Z,14.90
2018-08-22T01:43:42.870Z,14.90
2018-08-22T01:46:46.505Z,14.80
2018-08-22T01:49:50.114Z,14.70
2018-08-22T01:52:53.737Z,14.70
2018-08-22T01:55:57.421Z,14.70
2018-08-22T01:59:01.046Z,14.70
2018-08-22T02:02:04.684Z,14.70
2018-08-22T02:05:08.318Z,14.60
2018-08-22T02:08:11.930Z,14.60
2018-08-22T02:11:15.606Z,14.50
2018-08-22T02:14:19.492Z,14.50
2018-08-22T02:17:23.109Z,14.40
2018-08-22T02:20:26.791Z,14.40
2018-08-22T02:23:30.377Z,14.30
2018-08-22T02:26:34.441Z,14.20
2018-08-22T02:29:38.134Z,14.20
2018-08-22T02:32:41.942Z,14.10
2018-08-22T02:35:45.787Z,14.10
2018-08-22T02:38:49.402Z,14.00
2018-08-22T02:41:53.056Z,14.00
2018-08-22T02:44:56.676Z,14.00
2018-08-22T02:48:00.301Z,14.00
2018-08-22T02:51:03.904Z,13.90
2018-08-22T02:54:07.532Z,13.90
2018-08-22T02:57:11.145Z,13.90
2018-08-22T03:00:15.470Z,13.80
2018-08-22T03:03:19.937Z,13.80
2018-08-22T03:06:23.570Z,13.80
2018-08-22T03:09:27.169Z,13.80
2018-08-22T03:12:30.804Z,13.80
2018-08-22T03:15:34.406Z,13.70
2018-08-22T03:18:38.024Z,13.70
2018-08-22T03:21:41.627Z,13.70
2018-08-22T03:24:45.278Z,13.60
2018-08-22T03:27:48.917Z,13.60
2018-08-22T03:30:52.537Z,13.50
2018-08-22T03:33:56.147Z,13.50
2018-08-22T03:36:59.924Z,13.40
2018-08-22T03:40:03.537Z,13.40
2018-08-22T03:43:07.146Z,13.40
2018-08-22T03:46:10.746Z,13.30
2018-08-22T03:49:14.439Z,13.30
2018-08-22T03:52:18.061Z,13.30
2018-08-22T03:55:21.672Z,13.30
2018-08-22T03:58:25.265Z,13.30
2018-08-22T04:01:28.880Z,13.40
2018-08-22T04:04:32.503Z,13.40
2018-08-22T04:07:36.129Z,13.40
2018-08-22T04:10:39.731Z,13.40
2018-08-22T04:13:43.467Z,13.40
2018-08-22T04:16:47.065Z,13.40
2018-08-22T04:19:50.681Z,13.40
2018-08-22T04:22:54.303Z,13.50
2018-08-22T04:25:57.925Z,13.50
2018-08-22T04:29:01.594Z,13.50
2018-08-22T04:32:05.521Z,13.60
2018-08-22T04:35:09.121Z,13.80
2018-08-22T04:38:12.762Z,13.90
2018-08-22T04:41:16.511Z,14.00
2018-08-22T04:44:20.122Z,14.10
2018-08-22T04:47:23.738Z,14.70
2018-08-22T04:50:27.366Z,15.30
2018-08-22T04:53:30.978Z,15.80
2018-08-22T04:56:34.604Z,16.30
2018-08-22T04:59:38.243Z,16.90
2018-08-22T05:02:41.854Z,17.50
2018-08-22T05:05:45.463Z,17.90
2018-08-22T05:08:49.240Z,17.90
2018-08-22T05:11:52.851Z,18.30
2018-08-22T05:14:56.475Z,18.50
2018-08-22T05:18:00.113Z,18.90
2018-08-22T05:21:03.741Z,19.10
2018-08-22T05:24:07.349Z,18.70
2018-08-22T05:27:10.996Z,18.80
2018-08-22T05:30:14.721Z,19.50
2018-08-22T05:33:18.315Z,20.10
2018-08-22T05:36:21.986Z,20.40
2018-08-22T05:39:25.691Z,20.20
2018-08-22T05:42:29.302Z,20.30
2018-08-22T05:45:33.005Z,21.20
2018-08-22T05:48:36.602Z,21.30
2018-08-22T05:51:40.457Z,21.20
2018-08-22T05:54:44.118Z,21.10
2018-08-22T05:57:47.756Z,21.30
2018-08-22T06:00:51.363Z,21.50
2018-08-22T06:03:55.023Z,21.30
2018-08-22T06:06:58.664Z,21.00
2018-08-22T06:10:02.335Z,21.20
2018-08-22T06:13:06.021Z,21.10
2018-08-22T06:16:09.661Z,21.00
2018-08-22T06:19:13.274Z,20.90
2018-08-22T06:22:16.964Z,20.70
2018-08-22T06:25:20.580Z,21.70
2018-08-22T06:28:24.208Z,22.10
2018-08-22T06:31:27.809Z,22.70
2018-08-22T06:34:31.433Z,22.80
2018-08-22T06:37:35.105Z,23.20
2018-08-22T06:40:38.760Z,23.80
2018-08-22T06:43:42.345Z,23.80
2018-08-22T06:46:46.059Z,23.70
2018-08-22T06:49:49.658Z,23.90
2018-08-22T06:52:53.363Z,24.10
2018-08-22T06:55:57.076Z,24.10
2018-08-22T06:59:00.673Z,24.30
2018-08-22T07:02:04.303Z,24.00
2018-08-22T07:05:07.944Z,24.60
2018-08-22T07:08:11.606Z,25.20
2018-08-22T07:11:15.195Z,23.40
2018-08-22T07:14:18.801Z,23.10
2018-08-22T07:17:22.738Z,23.50
2018-08-22T07:20:26.355Z,24.40
2018-08-22T07:23:30.206Z,25.10
2018-08-22T07:26:34.211Z,25.40
2018-08-22T07:29:37.805Z,25.60
2018-08-22T07:32:41.422Z,25.40
2018-08-22T07:35:45.156Z,25.30
2018-08-22T07:38:49.053Z,25.60
2018-08-22T07:41:52.678Z,25.10
2018-08-22T07:44:56.290Z,25.30
2018-08-22T07:47:59.932Z,25.60
2018-08-22T07:51:03.569Z,26.40
2018-08-22T07:54:07.234Z,27.10
2018-08-22T07:57:10.947Z,26.80
2018-08-22T08:00:16.458Z,26.70
2018-08-22T08:03:20.038Z,27.00
2018-08-22T08:06:23.662Z,26.50
2018-08-22T08:09:27.452Z,26.50
2018-08-22T08:12:36.617Z,25.90
2018-08-22T08:15:40.534Z,26.10
2018-08-22T08:18:44.135Z,26.20
2018-08-22T08:21:47.754Z,26.30
2018-08-22T08:24:51.726Z,26.50
2018-08-22T08:27:55.363Z,27.00
2018-08-22T08:30:58.965Z,26.80
2018-08-22T08:34:02.611Z,26.40
2018-08-22T08:37:06.290Z,26.80
2018-08-22T08:40:09.963Z,26.40
2018-08-22T08:43:13.669Z,26.60
2018-08-22T08:46:17.269Z,26.20
2018-08-22T08:49:20.980Z,26.10
2018-08-22T08:52:24.554Z,26.10
2018-08-22T08:55:28.176Z,26.30
2018-08-22T08:58:31.819Z,26.60
2018-08-22T09:01:35.579Z,26.70
2018-08-22T09:04:39.191Z,26.40
2018-08-22T09:07:42.821Z,26.50
2018-08-22T09:10:46.479Z,25.90
2018-08-22T09:13:56.188Z,26.30
2018-08-22T09:17:00.197Z,26.20
2018-08-22T09:20:04.117Z,26.60
2018-08-22T09:23:07.752Z,26.30
2018-08-22T09:26:11.350Z,25.60
2018-08-22T09:29:14.986Z,25.60
2018-08-22T09:32:18.763Z,25.20
2018-08-22T09:35:22.391Z,25.50
2018-08-22T09:38:26.001Z,26.10
2018-08-22T09:41:29.645Z,26.10
2018-08-22T09:44:33.275Z,25.90
2018-08-22T09:47:36.928Z,25.70
2018-08-22T09:50:40.567Z,25.80
2018-08-22T09:53:44.279Z,25.90
2018-08-22T10:00:20.020Z,25.90
2018-08-22T10:03:23.629Z,26.40
2018-08-22T10:06:36.134Z,26.20
2018-08-22T10:09:39.669Z,26.10
2018-08-22T10:12:43.306Z,25.70
2018-08-22T10:15:46.947Z,25.70
2018-08-22T10:18:50.672Z,26.00
2018-08-22T10:21:54.289Z,25.50
2018-08-22T10:24:57.980Z,25.80
2018-08-22T10:28:01.618Z,25.70
2018-08-22T10:31:05.310Z,25.90
2018-08-22T10:34:08.961Z,26.00
2018-08-22T10:37:12.645Z,26.40
2018-08-22T10:40:16.294Z,26.40
2018-08-22T10:43:19.915Z,25.90
2018-08-22T10:46:23.633Z,26.10
2018-08-22T10:49:27.608Z,26.40
2018-08-22T10:52:31.204Z,26.50
2018-08-22T10:55:34.818Z,26.60
2018-08-22T10:58:38.515Z,26.60
2018-08-22T11:01:42.081Z,26.80
2018-08-22T11:04:45.749Z,26.80
2018-08-22T11:07:49.486Z,26.90
2018-08-22T11:10:53.146Z,26.80
2018-08-22T11:13:56.861Z,26.10
2018-08-22T11:17:00.500Z,25.60
2018-08-22T11:20:04.126Z,25.40
2018-08-22T11:23:19.288Z,25.50
2018-08-22T11:26:34.687Z,25.60
2018-08-22T11:29:49.674Z,25.50
2018-08-22T11:33:05.234Z,25.40
2018-08-22T11:36:07.999Z,25.40
2018-08-22T11:39:11.591Z,25.60
2018-08-22T11:42:15.343Z,25.70
2018-08-22T11:45:18.958Z,25.70
2018-08-22T11:48:22.591Z,25.60
2018-08-22T11:51:26.228Z,25.60
2018-08-22T11:54:30.521Z,25.60
2018-08-22T11:57:34.149Z,25.80
2018-08-22T12:00:37.825Z,25.90
2018-08-22T12:03:41.469Z,25.80
2018-08-22T12:06:45.267Z,25.90
2018-08-22T12:09:48.843Z,25.90
2018-08-22T12:12:52.561Z,25.90
2018-08-22T12:15:56.248Z,25.90
2018-08-22T12:18:59.848Z,26.20
2018-08-22T12:22:03.473Z,26.50
2018-08-22T12:25:07.107Z,26.60
2018-08-22T12:28:10.717Z,26.70
2018-08-22T12:31:14.504Z,26.60
2018-08-22T12:34:18.028Z,26.50
2018-08-22T12:37:21.662Z,26.80
2018-08-22T12:40:25.291Z,27.00
2018-08-22T12:43:28.937Z,27.00
2018-08-22T12:46:32.550Z,26.90
2018-08-22T12:49:36.193Z,26.80
2018-08-22T12:52:39.805Z,26.90
2018-08-22T12:55:43.499Z,27.00
2018-08-22T12:58:47.350Z,26.90
2018-08-22T13:01:50.957Z,26.80
2018-08-22T13:04:54.574Z,26.70
2018-08-22T13:07:58.273Z,26.70
2018-08-22T13:11:01.965Z,26.90
2018-08-22T13:14:05.566Z,27.10
2018-08-22T13:17:09.193Z,27.20
2018-08-22T13:20:12.814Z,27.10
2018-08-22T13:23:16.418Z,26.90
2018-08-22T13:26:20.073Z,26.90
2018-08-22T13:29:23.764Z,27.00
2018-08-22T13:32:28.019Z,27.00
2018-08-22T13:35:31.617Z,27.00
2018-08-22T13:38:35.242Z,26.80
2018-08-22T13:41:38.974Z,27.00
2018-08-22T13:44:42.928Z,26.70
2018-08-22T13:47:46.545Z,26.60
2018-08-22T13:50:50.242Z,26.60
2018-08-22T13:53:53.837Z,26.70
2018-08-22T13:56:57.471Z,26.90
2018-08-22T14:00:01.179Z,27.00
2018-08-22T14:03:04.780Z,27.10
2018-08-22T14:06:08.393Z,27.20
2018-08-22T14:09:12.699Z,27.30
2018-08-22T14:12:16.288Z,27.30
2018-08-22T14:15:19.917Z,27.10
2018-08-22T14:18:23.529Z,27.00
2018-08-22T14:21:27.194Z,26.90
2018-08-22T14:24:30.886Z,27.00
2018-08-22T14:27:34.546Z,27.00
2018-08-22T14:30:38.175Z,27.10
2018-08-22T14:33:42.121Z,27.00
2018-08-22T14:36:45.700Z,27.30
2018-08-22T14:39:49.335Z,27.40
2018-08-22T14:42:52.946Z,27.10
2018-08-22T14:45:56.580Z,27.00
2018-08-22T14:49:00.236Z,27.10
2018-08-22T14:52:03.870Z,27.20
2018-08-22T14:55:07.506Z,27.30
2018-08-22T14:58:11.134Z,27.40
2018-08-22T15:01:14.769Z,27.50
2018-08-22T15:04:18.399Z,27.60
2018-08-22T15:07:22.152Z,27.40
2018-08-22T15:10:25.748Z,27.30
2018-08-22T15:13:29.363Z,27.30
2018-08-22T15:16:33.020Z,27.30
2018-08-22T15:19:36.646Z,27.20
2018-08-22T15:22:40.282Z,27.20
2018-08-22T15:25:43.965Z,27.20
2018-08-22T15:28:47.552Z,27.10
2018-08-22T15:31:51.165Z,27.20
2018-08-22T15:34:56.789Z,27.20
2018-08-22T15:38:00.418Z,27.30
2018-08-22T15:41:04.094Z,27.20
2018-08-22T15:44:07.757Z,27.20
2018-08-22T15:47:12.140Z,27.20
2018-08-22T15:50:15.744Z,27.20
2018-08-22T15:53:19.466Z,27.20
2018-08-22T15:56:23.051Z,27.20
2018-08-22T15:59:26.947Z,27.10
2018-08-22T16:02:30.560Z,27.10
2018-08-22T16:05:35.151Z,27.10
2018-08-22T16:08:39.103Z,27.10
2018-08-22T16:11:42.920Z,27.10
2018-08-22T16:14:46.532Z,27.10
2018-08-22T16:17:54.253Z,27.00
2018-08-22T16:21:01.384Z,26.90
2018-08-22T16:24:05.104Z,26.90
2018-08-22T16:27:08.722Z,26.90
2018-08-22T16:30:12.331Z,26.80
2018-08-22T16:33:15.967Z,26.70
2018-08-22T16:36:25.773Z,26.70
2018-08-22T16:39:41.585Z,26.70
2018-08-22T16:42:45.260Z,26.60
2018-08-22T16:45:54.945Z,26.60
2018-08-22T16:48:58.682Z,26.60
2018-08-22T16:52:02.422Z,26.60
2018-08-22T16:55:16.607Z,26.50
2018-08-22T16:58:20.302Z,26.50
2018-08-22T17:01:24.005Z,26.50
2018-08-22T17:04:27.679Z,26.50
2018-08-22T17:07:31.354Z,26.40
2018-08-22T17:11:01.237Z,26.30
2018-08-22T17:14:04.928Z,26.30
2018-08-22T17:17:08.546Z,26.20
2018-08-22T17:20:12.277Z,26.10
2018-08-22T17:23:15.923Z,26.00
2018-08-22T17:26:20.527Z,26.00
2018-08-22T17:29:24.137Z,25.90
2018-08-22T17:32:27.803Z,25.80
2018-08-22T17:35:35.706Z,25.70
2018-08-22T17:38:43.543Z,25.50
2018-08-22T17:41:47.209Z,25.40
2018-08-22T17:44:50.840Z,25.40
2018-08-22T17:47:54.593Z,25.30
2018-08-22T17:50:58.175Z,25.30
2018-08-22T17:54:01.804Z,25.10
2018-08-22T17:57:20.462Z,25.00
2018-08-22T18:00:24.297Z,24.90
2018-08-22T18:03:27.990Z,24.80
2018-08-22T18:06:31.634Z,24.60
2018-08-22T18:09:35.224Z,24.50
2018-08-22T18:12:38.842Z,24.40
2018-08-22T18:15:43.113Z,24.30
2018-08-22T18:18:49.131Z,24.30
2018-08-22T18:21:52.754Z,24.30
2018-08-22T18:24:57.261Z,24.20
2018-08-22T18:28:04.385Z,24.10
2018-08-22T18:31:08.126Z,24.00
2018-08-22T18:34:11.742Z,23.90
2018-08-22T18:37:15.369Z,23.80
2018-08-22T18:40:23.658Z,23.70
2018-08-22T18:43:27.300Z,23.60
2018-08-22T18:49:57.117Z,23.40
2018-08-22T18:53:02.009Z,23.40
2018-08-22T18:56:13.872Z,23.30
2018-08-22T18:59:24.886Z,23.20
2018-08-22T19:02:28.530Z,23.10
2018-08-22T19:05:33.621Z,23.10
2018-08-22T19:08:38.254Z,23.20
2018-08-22T19:11:41.934Z,23.10
2018-08-22T19:14:47.104Z,23.00
2018-08-22T19:17:50.715Z,22.90
2018-08-22T19:20:56.990Z,22.90
2018-08-22T19:24:05.797Z,22.80
2018-08-22T19:27:09.443Z,22.90
2018-08-22T19:30:13.066Z,22.90
2018-08-22T19:33:18.033Z,22.80
2018-08-22T19:36:21.670Z,22.80
2018-08-22T19:39:25.315Z,22.80
2018-08-22T19:42:30.476Z,22.70
2018-08-22T19:45:35.629Z,22.60
2018-08-22T19:48:39.259Z,22.50
2018-08-22T19:51:42.916Z,22.40
2018-08-22T19:54:46.616Z,22.40
2018-08-22T19:57:50.263Z,22.50
2018-08-22T20:00:59.663Z,22.50
2018-08-22T20:04:03.298Z,22.50
2018-08-22T20:07:06.913Z,22.40
2018-08-22T20:10:10.695Z,22.50
2018-08-22T20:13:14.299Z,22.40
2018-08-22T20:16:19.156Z,22.30
2018-08-22T20:19:22.759Z,22.20
2018-08-22T20:22:31.762Z,22.00
2018-08-22T20:25:35.518Z,21.80
2018-08-22T20:28:43.543Z,21.70
2018-08-22T20:31:47.143Z,21.50
2018-08-22T20:34:50.819Z,21.40
2018-08-22T20:37:54.617Z,21.40
2018-08-22T20:41:05.223Z,21.30
2018-08-22T20:44:11.702Z,21.40
2018-08-22T20:47:15.519Z,21.40
2018-08-22T20:50:19.181Z,21.40
2018-08-22T20:53:22.766Z,21.30
2018-08-22T20:56:26.435Z,21.20
2018-08-22T20:59:30.055Z,21.10
2018-08-22T21:02:33.680Z,21.10
2018-08-22T21:05:37.314Z,21.10
2018-08-22T21:08:40.989Z,21.00
2018-08-22T21:11:44.593Z,21.00
2018-08-22T21:14:48.235Z,20.90
2018-08-22T21:17:51.838Z,21.00
2018-08-22T21:20:55.664Z,21.10
2018-08-22T21:23:59.265Z,21.10
2018-08-22T21:27:02.899Z,21.20
2018-08-22T21:30:06.571Z,21.20
2018-08-22T21:33:10.168Z,21.20
2018-08-22T21:36:13.999Z,21.20
2018-08-22T21:39:23.635Z,21.30
2018-08-22T21:42:29.418Z,21.20
2018-08-22T21:45:33.035Z,21.20
2018-08-22T21:48:36.638Z,21.20
2018-08-22T21:51:40.866Z,21.10
2018-08-22T21:54:44.558Z,21.00
2018-08-22T21:57:48.115Z,21.00
2018-08-22T22:00:52.025Z,20.90
2018-08-22T22:03:55.656Z,20.80
2018-08-22T22:06:59.303Z,20.80
2018-08-22T22:10:08.591Z,20.70
2018-08-22T22:13:12.238Z,20.60
2018-08-22T22:16:15.850Z,20.60
2018-08-22T22:19:19.460Z,20.50
2018-08-22T22:22:23.090Z,20.40
2018-08-22T22:25:26.719Z,20.30
2018-08-22T22:28:35.817Z,20.30
2018-08-22T22:31:39.414Z,20.20
2018-08-22T22:34:43.042Z,20.10
2018-08-22T22:37:46.659Z,20.10
2018-08-22T22:40:50.382Z,20.10
2018-08-22T22:43:54.097Z,20.00
2018-08-22T22:46:57.694Z,20.00
2018-08-22T22:50:01.755Z,20.00
2018-08-22T22:53:05.686Z,19.90
2018-08-22T22:56:09.298Z,19.90
2018-08-22T22:59:12.940Z,19.80
2018-08-22T23:02:17.086Z,19.70
2018-08-22T23:05:20.709Z,19.70
2018-08-22T23:08:24.487Z,19.70
2018-08-22T23:12:46.947Z,19.70
2018-08-22T23:15:50.591Z,19.60
2018-08-22T23:18:54.220Z,19.60
2018-08-22T23:21:57.941Z,19.50
2018-08-22T23:25:01.709Z,19.40
2018-08-22T23:28:05.551Z,19.30
2018-08-22T23:31:09.165Z,19.40
2018-08-22T23:34:12.774Z,19.40
2018-08-22T23:37:16.405Z,19.40
2018-08-22T23:40:20.887Z,19.30
2018-08-22T23:43:24.554Z,19.30
2018-08-22T23:46:28.166Z,19.30
2018-08-22T23:49:32.959Z,19.30
2018-08-22T23:52:42.131Z,19.20
2018-08-22T23:55:45.750Z,19.20
2018-08-22T23:58:50.198Z,19.10
